sensor_id;sensor_type;location;lat;lon;timestamp;pressure;altitude;pressure_sealevel;temperature;humidity
47785;BME280;35233;55.686;37.848;2023-03-04T00:00:08;98109.28;;;12.29;46.80
47785;BME280;35233;55.686;37.848;2023-03-04T00:02:34;98116.25;;;12.30;47.00
47785;BME280;35233;55.686;37.848;2023-03-04T00:04:59;98105.78;;;12.28;46.75
47785;BME280;35233;55.686;37.848;2023-03-04T00:07:24;98105.84;;;12.27;47.06
47785;BME280;35233;55.686;37.848;2023-03-04T00:09:50;98100.56;;;12.27;46.86
47785;BME280;35233;55.686;37.848;2023-03-04T00:12:15;98092.22;;;12.18;47.14
47785;BME280;35233;55.686;37.848;2023-03-04T00:14:41;98097.50;;;12.18;47.25
47785;BME280;35233;55.686;37.848;2023-03-04T00:17:07;98082.59;;;12.17;46.83
47785;BME280;35233;55.686;37.848;2023-03-04T00:19:33;98089.69;;;12.17;47.01
47785;BME280;35233;55.686;37.848;2023-03-04T00:21:59;98083.16;;;12.22;46.90
47785;BME280;35233;55.686;37.848;2023-03-04T00:24:25;98080.03;;;12.16;47.10
47785;BME280;35233;55.686;37.848;2023-03-04T00:26:50;98078.06;;;12.19;46.99
47785;BME280;35233;55.686;37.848;2023-03-04T00:29:16;98067.16;;;12.10;47.27
47785;BME280;35233;55.686;37.848;2023-03-04T00:31:41;98068.88;;;12.11;47.19
47785;BME280;35233;55.686;37.848;2023-03-04T00:34:07;98065.28;;;12.12;46.90
47785;BME280;35233;55.686;37.848;2023-03-04T00:36:32;98059.50;;;12.05;47.39
47785;BME280;35233;55.686;37.848;2023-03-04T00:38:58;98061.19;;;12.06;47.23
47785;BME280;35233;55.686;37.848;2023-03-04T00:41:23;98051.44;;;12.07;47.11
47785;BME280;35233;55.686;37.848;2023-03-04T00:43:49;98051.38;;;12.08;47.23
47785;BME280;35233;55.686;37.848;2023-03-04T00:46:14;98050.59;;;12.06;47.34
47785;BME280;35233;55.686;37.848;2023-03-04T00:48:40;98057.03;;;12.02;47.48
47785;BME280;35233;55.686;37.848;2023-03-04T00:51:05;98048.16;;;12.03;47.17
47785;BME280;35233;55.686;37.848;2023-03-04T00:53:32;98041.16;;;12.02;47.20
47785;BME280;35233;55.686;37.848;2023-03-04T00:55:58;98029.16;;;11.96;47.12
47785;BME280;35233;55.686;37.848;2023-03-04T00:58:23;98039.44;;;12.01;47.15
47785;BME280;35233;55.686;37.848;2023-03-04T01:00:48;98025.66;;;11.96;47.09
47785;BME280;35233;55.686;37.848;2023-03-04T01:03:14;98036.97;;;11.98;47.12
47785;BME280;35233;55.686;37.848;2023-03-04T01:05:39;98030.00;;;11.97;47.30
47785;BME280;35233;55.686;37.848;2023-03-04T01:08:05;98028.31;;;11.96;47.40
47785;BME280;35233;55.686;37.848;2023-03-04T01:10:31;98028.00;;;12.00;47.19
47785;BME280;35233;55.686;37.848;2023-03-04T01:12:57;98030.34;;;11.91;47.25
47785;BME280;35233;55.686;37.848;2023-03-04T01:15:23;98027.13;;;11.86;47.29
47785;BME280;35233;55.686;37.848;2023-03-04T01:17:48;98036.31;;;11.94;47.46
47785;BME280;35233;55.686;37.848;2023-03-04T01:20:14;98033.97;;;11.90;47.58
47785;BME280;35233;55.686;37.848;2023-03-04T01:22:40;98026.09;;;11.88;47.31
47785;BME280;35233;55.686;37.848;2023-03-04T01:25:05;98033.09;;;11.89;47.37
47785;BME280;35233;55.686;37.848;2023-03-04T01:27:31;98027.91;;;11.88;47.65
47785;BME280;35233;55.686;37.848;2023-03-04T01:29:56;98037.44;;;11.90;47.25
47785;BME280;35233;55.686;37.848;2023-03-04T01:32:22;98036.00;;;11.85;47.60
47785;BME280;35233;55.686;37.848;2023-03-04T01:34:47;98024.22;;;11.74;47.56
47785;BME280;35233;55.686;37.848;2023-03-04T01:37:13;98030.69;;;11.85;47.54
47785;BME280;35233;55.686;37.848;2023-03-04T01:39:39;98028.97;;;11.84;47.32
47785;BME280;35233;55.686;37.848;2023-03-04T01:42:04;98017.06;;;11.76;47.47
47785;BME280;35233;55.686;37.848;2023-03-04T01:44:31;98015.44;;;11.74;47.40
47785;BME280;35233;55.686;37.848;2023-03-04T01:46:56;98021.50;;;11.76;47.71
47785;BME280;35233;55.686;37.848;2023-03-04T01:49:22;98024.94;;;11.78;47.78
47785;BME280;35233;55.686;37.848;2023-03-04T01:51:53;98025.84;;;11.77;47.51
47785;BME280;35233;55.686;37.848;2023-03-04T01:54:20;98019.78;;;11.75;47.62
47785;BME280;35233;55.686;37.848;2023-03-04T01:56:47;98017.25;;;11.73;47.90
47785;BME280;35233;55.686;37.848;2023-03-04T01:59:23;98018.19;;;11.72;47.73
47785;BME280;35233;55.686;37.848;2023-03-04T02:01:54;98015.19;;;11.78;47.30
47785;BME280;35233;55.686;37.848;2023-03-04T02:04:26;98013.47;;;11.77;47.57
47785;BME280;35233;55.686;37.848;2023-03-04T02:06:52;98010.94;;;11.76;47.39
47785;BME280;35233;55.686;37.848;2023-03-04T02:09:19;97998.25;;;11.67;47.31
47785;BME280;35233;55.686;37.848;2023-03-04T02:11:47;98000.78;;;11.68;47.32
47785;BME280;35233;55.686;37.848;2023-03-04T02:14:14;98004.97;;;11.72;47.13
47785;BME280;35233;55.686;37.848;2023-03-04T02:16:40;97999.69;;;11.72;47.41
47785;BME280;35233;55.686;37.848;2023-03-04T02:19:12;97992.66;;;11.71;47.69
47785;BME280;35233;55.686;37.848;2023-03-04T02:21:40;97982.56;;;11.64;47.72
47785;BME280;35233;55.686;37.848;2023-03-04T02:26:37;97978.00;;;11.66;47.74
47785;BME280;35233;55.686;37.848;2023-03-04T02:29:05;97978.72;;;11.69;47.38
47785;BME280;35233;55.686;37.848;2023-03-04T02:31:35;97975.09;;;11.70;47.29
47785;BME280;35233;55.686;37.848;2023-03-04T02:34:04;97962.69;;;11.56;47.71
47785;BME280;35233;55.686;37.848;2023-03-04T02:36:31;97966.00;;;11.60;47.64
47785;BME280;35233;55.686;37.848;2023-03-04T02:39:04;97961.59;;;11.61;47.55
47785;BME280;35233;55.686;37.848;2023-03-04T02:41:31;97963.00;;;11.66;47.64
47785;BME280;35233;55.686;37.848;2023-03-04T02:43:56;97962.63;;;11.58;47.68
47785;BME280;35233;55.686;37.848;2023-03-04T02:46:22;97950.31;;;11.57;47.32
47785;BME280;35233;55.686;37.848;2023-03-04T02:48:48;97946.75;;;11.58;47.70
47785;BME280;35233;55.686;37.848;2023-03-04T02:51:14;97948.53;;;11.57;47.60
47785;BME280;35233;55.686;37.848;2023-03-04T02:53:40;97949.03;;;11.64;47.17
47785;BME280;35233;55.686;37.848;2023-03-04T02:56:06;97940.69;;;11.56;47.88
47785;BME280;35233;55.686;37.848;2023-03-04T02:58:32;97935.66;;;11.51;47.64
47785;BME280;35233;55.686;37.848;2023-03-04T03:00:57;97931.16;;;11.53;47.49
47785;BME280;35233;55.686;37.848;2023-03-04T03:03:23;97927.47;;;11.56;47.50
47785;BME280;35233;55.686;37.848;2023-03-04T03:05:48;97913.78;;;11.49;47.58
47785;BME280;35233;55.686;37.848;2023-03-04T03:08:14;97912.81;;;11.50;47.45
47785;BME280;35233;55.686;37.848;2023-03-04T03:10:40;97918.97;;;11.51;47.65
47785;BME280;35233;55.686;37.848;2023-03-04T03:13:05;97917.09;;;11.53;47.62
47785;BME280;35233;55.686;37.848;2023-03-04T03:15:31;97920.81;;;11.49;47.64
47785;BME280;35233;55.686;37.848;2023-03-04T03:17:57;97919.53;;;11.56;47.35
47785;BME280;35233;55.686;37.848;2023-03-04T03:20:22;97906.69;;;11.50;47.38
47785;BME280;35233;55.686;37.848;2023-03-04T03:22:48;97895.91;;;11.39;47.95
47785;BME280;35233;55.686;37.848;2023-03-04T03:25:14;97895.34;;;11.48;47.71
47785;BME280;35233;55.686;37.848;2023-03-04T03:27:41;97900.81;;;11.45;47.52
47785;BME280;35233;55.686;37.848;2023-03-04T03:30:10;97909.34;;;11.50;47.53
47785;BME280;35233;55.686;37.848;2023-03-04T03:32:36;97893.00;;;11.43;47.46
47785;BME280;35233;55.686;37.848;2023-03-04T03:35:02;97899.69;;;11.49;47.68
47785;BME280;35233;55.686;37.848;2023-03-04T03:37:28;97901.47;;;11.48;47.41
47785;BME280;35233;55.686;37.848;2023-03-04T03:39:53;97893.91;;;11.42;47.65
47785;BME280;35233;55.686;37.848;2023-03-04T03:42:19;97897.50;;;11.41;47.50
47785;BME280;35233;55.686;37.848;2023-03-04T03:44:44;97898.75;;;11.50;47.36
47785;BME280;35233;55.686;37.848;2023-03-04T03:47:10;97884.28;;;11.41;47.48
47785;BME280;35233;55.686;37.848;2023-03-04T03:49:35;97891.28;;;11.42;47.77
47785;BME280;35233;55.686;37.848;2023-03-04T03:52:01;97890.34;;;11.43;47.53
47785;BME280;35233;55.686;37.848;2023-03-04T03:54:26;97885.97;;;11.42;47.50
47785;BME280;35233;55.686;37.848;2023-03-04T03:56:52;97881.91;;;11.37;48.01
47785;BME280;35233;55.686;37.848;2023-03-04T03:59:17;97872.88;;;11.41;47.82
47785;BME280;35233;55.686;37.848;2023-03-04T04:01:43;97870.50;;;11.36;47.77
47785;BME280;35233;55.686;37.848;2023-03-04T04:04:08;97873.34;;;11.47;47.46
47785;BME280;35233;55.686;37.848;2023-03-04T04:06:34;97862.09;;;11.44;47.81
47785;BME280;35233;55.686;37.848;2023-03-04T04:08:59;97865.31;;;11.49;47.49
47785;BME280;35233;55.686;37.848;2023-03-04T04:11:25;97864.94;;;11.41;47.73
47785;BME280;35233;55.686;37.848;2023-03-04T04:13:50;97849.44;;;11.35;47.61
47785;BME280;35233;55.686;37.848;2023-03-04T04:16:16;97837.06;;;11.35;47.68
47785;BME280;35233;55.686;37.848;2023-03-04T04:18:41;97843.28;;;11.34;47.54
47785;BME280;35233;55.686;37.848;2023-03-04T04:21:08;97849.25;;;11.38;47.51
47785;BME280;35233;55.686;37.848;2023-03-04T04:23:33;97839.59;;;11.37;47.48
47785;BME280;35233;55.686;37.848;2023-03-04T04:25:59;97839.41;;;11.40;47.47
47785;BME280;35233;55.686;37.848;2023-03-04T04:28:24;97838.56;;;11.39;47.93
47785;BME280;35233;55.686;37.848;2023-03-04T04:30:50;97835.94;;;11.39;47.74
47785;BME280;35233;55.686;37.848;2023-03-04T04:33:16;97836.22;;;11.35;47.72
47785;BME280;35233;55.686;37.848;2023-03-04T04:35:41;97836.03;;;11.38;47.41
47785;BME280;35233;55.686;37.848;2023-03-04T04:38:08;97843.22;;;11.36;47.70
47785;BME280;35233;55.686;37.848;2023-03-04T04:40:34;97840.38;;;11.39;47.61
47785;BME280;35233;55.686;37.848;2023-03-04T04:42:59;97836.03;;;11.38;47.44
47785;BME280;35233;55.686;37.848;2023-03-04T04:45:25;97837.81;;;11.37;47.41
47785;BME280;35233;55.686;37.848;2023-03-04T04:47:52;97834.06;;;11.41;47.47
47785;BME280;35233;55.686;37.848;2023-03-04T04:50:17;97833.94;;;11.43;47.62
47785;BME280;35233;55.686;37.848;2023-03-04T04:52:43;97835.84;;;11.41;47.54
47785;BME280;35233;55.686;37.848;2023-03-04T04:55:09;97835.09;;;11.39;47.77
47785;BME280;35233;55.686;37.848;2023-03-04T04:57:35;97825.53;;;11.36;47.65
47785;BME280;35233;55.686;37.848;2023-03-04T05:00:00;97840.19;;;11.42;47.53
47785;BME280;35233;55.686;37.848;2023-03-04T05:02:26;97833.66;;;11.33;47.27
47785;BME280;35233;55.686;37.848;2023-03-04T05:04:51;97834.31;;;11.37;47.37
47785;BME280;35233;55.686;37.848;2023-03-04T05:07:18;97838.69;;;11.38;47.88
47785;BME280;35233;55.686;37.848;2023-03-04T05:09:43;97833.03;;;11.44;47.05
47785;BME280;35233;55.686;37.848;2023-03-04T05:12:10;97843.78;;;11.41;47.66
47785;BME280;35233;55.686;37.848;2023-03-04T05:14:35;97842.66;;;11.45;47.44
47785;BME280;35233;55.686;37.848;2023-03-04T05:17:01;97840.25;;;11.40;47.49
47785;BME280;35233;55.686;37.848;2023-03-04T05:19:26;97838.00;;;11.34;47.49
47785;BME280;35233;55.686;37.848;2023-03-04T05:21:52;97840.56;;;11.36;47.54
47785;BME280;35233;55.686;37.848;2023-03-04T05:24:17;97839.41;;;11.40;47.19
47785;BME280;35233;55.686;37.848;2023-03-04T05:26:43;97818.06;;;11.28;47.60
47785;BME280;35233;55.686;37.848;2023-03-04T05:29:08;97827.81;;;11.42;47.05
47785;BME280;35233;55.686;37.848;2023-03-04T05:31:34;97833.03;;;11.58;46.81
47785;BME280;35233;55.686;37.848;2023-03-04T05:33:59;97829.81;;;11.67;46.89
47785;BME280;35233;55.686;37.848;2023-03-04T05:36:25;97823.88;;;11.64;46.82
47785;BME280;35233;55.686;37.848;2023-03-04T05:38:50;97822.66;;;11.69;46.50
47785;BME280;35233;55.686;37.848;2023-03-04T05:41:16;97809.31;;;11.71;46.52
47785;BME280;35233;55.686;37.848;2023-03-04T05:43:44;97807.44;;;11.73;46.82
47785;BME280;35233;55.686;37.848;2023-03-04T05:46:15;97799.97;;;11.65;46.65
47785;BME280;35233;55.686;37.848;2023-03-04T05:48:42;97808.84;;;11.78;46.50
47785;BME280;35233;55.686;37.848;2023-03-04T05:51:08;97799.41;;;11.89;46.50
47785;BME280;35233;55.686;37.848;2023-03-04T05:53:34;97796.66;;;11.90;46.32
47785;BME280;35233;55.686;37.848;2023-03-04T05:56:12;97787.22;;;11.86;46.26
47785;BME280;35233;55.686;37.848;2023-03-04T05:58:38;97782.91;;;11.84;46.27
47785;BME280;35233;55.686;37.848;2023-03-04T06:01:04;97802.22;;;12.00;46.15
47785;BME280;35233;55.686;37.848;2023-03-04T06:03:30;97784.66;;;11.99;45.80
47785;BME280;35233;55.686;37.848;2023-03-04T06:05:55;97782.72;;;12.01;45.93
47785;BME280;35233;55.686;37.848;2023-03-04T06:08:21;97789.53;;;12.05;46.10
47785;BME280;35233;55.686;37.848;2023-03-04T06:10:47;97784.13;;;12.07;45.95
47785;BME280;35233;55.686;37.848;2023-03-04T06:13:12;97779.19;;;12.15;45.88
47785;BME280;35233;55.686;37.848;2023-03-04T06:15:39;97773.81;;;12.16;45.74
47785;BME280;35233;55.686;37.848;2023-03-04T06:18:06;97779.19;;;12.15;45.70
47785;BME280;35233;55.686;37.848;2023-03-04T06:20:32;97784.00;;;12.22;45.67
47785;BME280;35233;55.686;37.848;2023-03-04T06:22:57;97774.56;;;12.18;45.41
47785;BME280;35233;55.686;37.848;2023-03-04T06:25:23;97762.88;;;12.08;45.40
47785;BME280;35233;55.686;37.848;2023-03-04T06:27:49;97775.78;;;12.13;45.63
47785;BME280;35233;55.686;37.848;2023-03-04T06:30:14;97774.28;;;12.23;45.78
47785;BME280;35233;55.686;37.848;2023-03-04T06:32:40;97762.56;;;12.13;45.77
47785;BME280;35233;55.686;37.848;2023-03-04T06:35:09;97769.72;;;12.25;45.67
47785;BME280;35233;55.686;37.848;2023-03-04T06:37:36;97773.66;;;12.32;45.56
47785;BME280;35233;55.686;37.848;2023-03-04T06:40:02;97767.31;;;12.35;45.69
47785;BME280;35233;55.686;37.848;2023-03-04T06:42:28;97768.06;;;12.37;45.59
47785;BME280;35233;55.686;37.848;2023-03-04T06:44:53;97754.28;;;12.32;45.37
47785;BME280;35233;55.686;37.848;2023-03-04T06:47:19;97758.41;;;12.36;45.47
47785;BME280;35233;55.686;37.848;2023-03-04T06:49:44;97757.38;;;12.38;45.47
47785;BME280;35233;55.686;37.848;2023-03-04T06:52:10;97753.88;;;12.38;45.40
47785;BME280;35233;55.686;37.848;2023-03-04T06:54:37;97756.75;;;12.48;45.01
47785;BME280;35233;55.686;37.848;2023-03-04T06:57:02;97744.38;;;12.48;45.18
47785;BME280;35233;55.686;37.848;2023-03-04T06:59:28;97750.19;;;12.53;45.09
47785;BME280;35233;55.686;37.848;2023-03-04T07:01:53;97731.66;;;12.53;45.16
47785;BME280;35233;55.686;37.848;2023-03-04T07:04:19;97733.72;;;12.62;45.15
47785;BME280;35233;55.686;37.848;2023-03-04T07:06:47;97734.44;;;12.52;45.15
47785;BME280;35233;55.686;37.848;2023-03-04T07:09:12;97731.22;;;12.46;45.22
47785;BME280;35233;55.686;37.848;2023-03-04T07:11:38;97735.28;;;12.52;45.20
47785;BME280;35233;55.686;37.848;2023-03-04T07:14:03;97737.72;;;12.55;45.17
47785;BME280;35233;55.686;37.848;2023-03-04T07:16:29;97721.06;;;12.53;45.01
47785;BME280;35233;55.686;37.848;2023-03-04T07:18:54;97724.69;;;12.65;45.14
47785;BME280;35233;55.686;37.848;2023-03-04T07:21:20;97723.22;;;12.74;44.80
47785;BME280;35233;55.686;37.848;2023-03-04T07:23:45;97716.56;;;12.81;44.74
47785;BME280;35233;55.686;37.848;2023-03-04T07:26:11;97705.25;;;12.91;44.39
47785;BME280;35233;55.686;37.848;2023-03-04T07:28:37;97700.44;;;12.97;44.50
47785;BME280;35233;55.686;37.848;2023-03-04T07:33:46;97693.13;;;13.13;44.21
47785;BME280;35233;55.686;37.848;2023-03-04T07:36:12;97685.06;;;13.14;44.34
47785;BME280;35233;55.686;37.848;2023-03-04T07:38:42;97685.94;;;13.15;44.27
47785;BME280;35233;55.686;37.848;2023-03-04T07:41:08;97688.59;;;13.28;44.25
47785;BME280;35233;55.686;37.848;2023-03-04T07:43:34;97672.56;;;13.17;44.32
47785;BME280;35233;55.686;37.848;2023-03-04T07:46:00;97676.88;;;13.18;44.53
47785;BME280;35233;55.686;37.848;2023-03-04T07:48:26;97675.72;;;13.22;44.51
47785;BME280;35233;55.686;37.848;2023-03-04T07:51:15;97691.56;;;13.36;44.35
47785;BME280;35233;55.686;37.848;2023-03-04T07:53:43;97679.97;;;13.37;44.25
47785;BME280;35233;55.686;37.848;2023-03-04T07:56:17;97679.97;;;13.37;44.34
47785;BME280;35233;55.686;37.848;2023-03-04T07:58:44;97670.69;;;13.55;43.94
47785;BME280;35233;55.686;37.848;2023-03-04T08:01:19;97670.75;;;13.67;43.70
47785;BME280;35233;55.686;37.848;2023-03-04T08:03:45;97668.53;;;13.73;43.63
47785;BME280;35233;55.686;37.848;2023-03-04T08:06:13;97666.53;;;13.64;43.83
47785;BME280;35233;55.686;37.848;2023-03-04T08:08:40;97665.19;;;13.58;43.91
47785;BME280;35233;55.686;37.848;2023-03-04T08:11:07;97665.38;;;13.55;43.92
47785;BME280;35233;55.686;37.848;2023-03-04T08:13:34;97651.31;;;13.42;44.14
47785;BME280;35233;55.686;37.848;2023-03-04T08:16:00;97653.69;;;13.34;44.67
47785;BME280;35233;55.686;37.848;2023-03-04T08:18:25;97645.41;;;13.26;44.78
47785;BME280;35233;55.686;37.848;2023-03-04T08:20:51;97652.22;;;13.30;44.39
47785;BME280;35233;55.686;37.848;2023-03-04T08:23:17;97652.28;;;14.37;44.49
47785;BME280;35233;55.686;37.848;2023-03-04T08:25:42;97641.09;;;16.65;41.28
47785;BME280;35233;55.686;37.848;2023-03-04T08:28:09;97626.97;;;17.26;40.53
47785;BME280;35233;55.686;37.848;2023-03-04T08:30:34;97627.97;;;17.85;40.28
47785;BME280;35233;55.686;37.848;2023-03-04T08:33:01;97629.72;;;16.63;35.33
47785;BME280;35233;55.686;37.848;2023-03-04T08:35:27;97645.63;;;14.67;37.49
47785;BME280;35233;55.686;37.848;2023-03-04T08:37:52;97619.81;;;16.12;40.01
47785;BME280;35233;55.686;37.848;2023-03-04T08:40:18;97625.69;;;17.20;37.74
47785;BME280;35233;55.686;37.848;2023-03-04T08:42:43;97627.06;;;17.65;37.27
47785;BME280;35233;55.686;37.848;2023-03-04T08:45:09;97603.50;;;17.80;36.78
47785;BME280;35233;55.686;37.848;2023-03-04T08:47:35;97622.94;;;18.01;36.70
47785;BME280;35233;55.686;37.848;2023-03-04T08:50:02;97622.53;;;18.16;36.19
47785;BME280;35233;55.686;37.848;2023-03-04T08:52:28;97614.38;;;18.27;35.93
47785;BME280;35233;55.686;37.848;2023-03-04T08:54:55;97615.22;;;18.27;36.28
47785;BME280;35233;55.686;37.848;2023-03-04T08:57:20;97610.69;;;18.38;36.92
47785;BME280;35233;55.686;37.848;2023-03-04T08:59:46;97605.63;;;18.44;37.36
47785;BME280;35233;55.686;37.848;2023-03-04T09:02:12;97600.00;;;18.47;38.09
47785;BME280;35233;55.686;37.848;2023-03-04T09:04:37;97603.66;;;18.56;38.40
47785;BME280;35233;55.686;37.848;2023-03-04T09:07:03;97590.38;;;18.64;38.46
47785;BME280;35233;55.686;37.848;2023-03-04T09:09:29;97591.25;;;18.65;38.51
47785;BME280;35233;55.686;37.848;2023-03-04T09:11:54;97585.31;;;18.61;39.13
47785;BME280;35233;55.686;37.848;2023-03-04T09:14:20;97579.84;;;18.63;39.16
47785;BME280;35233;55.686;37.848;2023-03-04T09:16:45;97559.16;;;18.55;39.21
47785;BME280;35233;55.686;37.848;2023-03-04T09:19:11;97574.31;;;18.64;39.46
47785;BME280;35233;55.686;37.848;2023-03-04T09:21:36;97565.47;;;18.64;39.41
47785;BME280;35233;55.686;37.848;2023-03-04T09:24:02;97566.59;;;18.71;39.57
47785;BME280;35233;55.686;37.848;2023-03-04T09:26:29;97559.25;;;18.73;39.35
47785;BME280;35233;55.686;37.848;2023-03-04T09:28:57;97557.00;;;18.78;39.40
47785;BME280;35233;55.686;37.848;2023-03-04T09:31:24;97543.03;;;18.84;39.31
47785;BME280;35233;55.686;37.848;2023-03-04T09:33:51;97534.84;;;18.95;38.82
47785;BME280;35233;55.686;37.848;2023-03-04T09:36:17;97526.41;;;19.18;38.52
47785;BME280;35233;55.686;37.848;2023-03-04T09:38:42;97523.22;;;19.14;38.34
47785;BME280;35233;55.686;37.848;2023-03-04T09:41:14;97519.59;;;19.06;38.76
47785;BME280;35233;55.686;37.848;2023-03-04T09:43:42;97516.63;;;19.09;38.79
47785;BME280;35233;55.686;37.848;2023-03-04T09:46:19;97509.13;;;19.12;38.76
47785;BME280;35233;55.686;37.848;2023-03-04T09:48:51;97511.25;;;19.09;39.24
47785;BME280;35233;55.686;37.848;2023-03-04T09:54:29;97491.53;;;19.10;39.58
47785;BME280;35233;55.686;37.848;2023-03-04T09:57:03;97492.34;;;19.10;40.33
47785;BME280;35233;55.686;37.848;2023-03-04T09:59:40;97489.84;;;19.09;40.99
47785;BME280;35233;55.686;37.848;2023-03-04T10:02:26;97486.78;;;19.04;41.26
47785;BME280;35233;55.686;37.848;2023-03-04T10:04:55;97480.81;;;19.10;41.61
47785;BME280;35233;55.686;37.848;2023-03-04T10:07:30;97474.88;;;19.16;41.77
47785;BME280;35233;55.686;37.848;2023-03-04T10:10:06;97474.78;;;19.26;40.99
47785;BME280;35233;55.686;37.848;2023-03-04T10:12:36;97469.59;;;19.24;40.94
47785;BME280;35233;55.686;37.848;2023-03-04T10:15:16;97449.31;;;19.21;40.30
47785;BME280;35233;55.686;37.848;2023-03-04T10:17:48;97456.22;;;19.24;40.38
47785;BME280;35233;55.686;37.848;2023-03-04T10:20:21;97457.84;;;19.17;40.49
47785;BME280;35233;55.686;37.848;2023-03-04T10:22:50;97442.97;;;19.05;40.50
47785;BME280;35233;55.686;37.848;2023-03-04T10:25:22;97449.44;;;19.02;40.65
47785;BME280;35233;55.686;37.848;2023-03-04T10:27:54;97437.47;;;19.06;40.08
47785;BME280;35233;55.686;37.848;2023-03-04T10:33:18;97427.84;;;19.31;39.29
47785;BME280;35233;55.686;37.848;2023-03-04T10:35:48;97423.78;;;19.45;38.89
47785;BME280;35233;55.686;37.848;2023-03-04T10:38:15;97421.63;;;19.49;38.90
47785;BME280;35233;55.686;37.848;2023-03-04T10:40:45;97417.66;;;19.53;39.07
47785;BME280;35233;55.686;37.848;2023-03-04T10:43:18;97405.25;;;19.52;39.17
47785;BME280;35233;55.686;37.848;2023-03-04T10:45:44;97396.56;;;19.50;38.40
47785;BME280;35233;55.686;37.848;2023-03-04T10:48:22;97405.31;;;19.60;38.49
47785;BME280;35233;55.686;37.848;2023-03-04T10:50:48;97398.44;;;19.57;38.33
47785;BME280;35233;55.686;37.848;2023-03-04T10:53:30;97389.44;;;19.58;38.42
47785;BME280;35233;55.686;37.848;2023-03-04T10:55:58;97395.25;;;19.54;38.32
47785;BME280;35233;55.686;37.848;2023-03-04T10:58:23;97381.31;;;19.50;38.21
47785;BME280;35233;55.686;37.848;2023-03-04T11:01:04;97379.66;;;19.49;38.53
47785;BME280;35233;55.686;37.848;2023-03-04T11:03:33;97345.16;;;19.28;38.36
47785;BME280;35233;55.686;37.848;2023-03-04T11:06:16;97378.34;;;19.53;38.33
47785;BME280;35233;55.686;37.848;2023-03-04T11:08:43;97371.00;;;19.55;38.00
47785;BME280;35233;55.686;37.848;2023-03-04T11:11:29;97364.94;;;19.53;37.95
47785;BME280;35233;55.686;37.848;2023-03-04T11:14:01;97371.97;;;19.54;38.01
47785;BME280;35233;55.686;37.848;2023-03-04T11:16:30;97359.31;;;19.38;38.09
47785;BME280;35233;55.686;37.848;2023-03-04T11:18:59;97372.47;;;19.14;37.96
47785;BME280;35233;55.686;37.848;2023-03-04T11:21:30;97365.34;;;18.04;40.27
47785;BME280;35233;55.686;37.848;2023-03-04T11:23:59;97361.94;;;17.55;40.85
47785;BME280;35233;55.686;37.848;2023-03-04T11:31:49;97359.25;;;16.87;41.72
47785;BME280;35233;55.686;37.848;2023-03-04T11:36:58;97344.34;;;16.55;42.41
47785;BME280;35233;55.686;37.848;2023-03-04T11:44:56;97318.84;;;16.22;43.04
47785;BME280;35233;55.686;37.848;2023-03-04T12:00:53;97320.38;;;15.74;44.14
47785;BME280;35233;55.686;37.848;2023-03-04T12:03:41;97312.66;;;15.71;44.47
47785;BME280;35233;55.686;37.848;2023-03-04T12:14:15;97285.72;;;15.44;45.21
47785;BME280;35233;55.686;37.848;2023-03-04T12:35:57;97255.97;;;15.08;46.54
47785;BME280;35233;55.686;37.848;2023-03-04T12:38:35;97255.41;;;15.04;46.64
47785;BME280;35233;55.686;37.848;2023-03-04T12:44:18;97252.84;;;15.03;46.81
47785;BME280;35233;55.686;37.848;2023-03-04T12:54:44;97231.53;;;14.93;47.06
47785;BME280;35233;55.686;37.848;2023-03-04T12:57:19;97229.25;;;14.88;46.94
47785;BME280;35233;55.686;37.848;2023-03-04T13:05:28;97223.22;;;14.65;47.18
47785;BME280;35233;55.686;37.848;2023-03-04T13:10:33;97219.00;;;14.63;47.03
47785;BME280;35233;55.686;37.848;2023-03-04T13:13:00;97209.03;;;14.55;47.17
47785;BME280;35233;55.686;37.848;2023-03-04T13:15:33;97202.97;;;14.53;47.00
47785;BME280;35233;55.686;37.848;2023-03-04T13:18:33;97206.97;;;14.47;46.85
47785;BME280;35233;55.686;37.848;2023-03-04T13:21:24;97194.91;;;14.43;46.94
47785;BME280;35233;55.686;37.848;2023-03-04T13:23:51;97200.94;;;15.60;46.23
47785;BME280;35233;55.686;37.848;2023-03-04T13:26:18;97183.09;;;17.08;42.77
47785;BME280;35233;55.686;37.848;2023-03-04T13:28:54;97183.47;;;17.60;41.54
47785;BME280;35233;55.686;37.848;2023-03-04T13:31:24;97171.56;;;17.82;40.85
47785;BME280;35233;55.686;37.848;2023-03-04T13:33:56;97173.53;;;18.07;40.51
47785;BME280;35233;55.686;37.848;2023-03-04T13:36:31;97163.06;;;18.14;40.10
47785;BME280;35233;55.686;37.848;2023-03-04T13:39:00;97163.44;;;18.37;39.92
47785;BME280;35233;55.686;37.848;2023-03-04T13:41:46;97165.88;;;18.48;39.78
47785;BME280;35233;55.686;37.848;2023-03-04T13:47:14;97147.66;;;18.70;39.38
47785;BME280;35233;55.686;37.848;2023-03-04T13:49:41;97137.25;;;18.76;39.19
47785;BME280;35233;55.686;37.848;2023-03-04T13:55:37;97140.75;;;19.03;38.79
47785;BME280;35233;55.686;37.848;2023-03-04T13:58:17;97128.22;;;19.04;38.71
47785;BME280;35233;55.686;37.848;2023-03-04T14:00:50;97130.00;;;18.33;39.48
47785;BME280;35233;55.686;37.848;2023-03-04T14:03:22;97137.78;;;16.98;42.57
47785;BME280;35233;55.686;37.848;2023-03-04T14:06:18;97095.25;;;16.30;43.61
47785;BME280;35233;55.686;37.848;2023-03-04T14:08:45;97121.59;;;16.04;44.35
47785;BME280;35233;55.686;37.848;2023-03-04T14:11:22;97107.44;;;15.74;44.58
47785;BME280;35233;55.686;37.848;2023-03-04T14:13:49;97106.44;;;17.37;44.49
47785;BME280;35233;55.686;37.848;2023-03-04T14:16:22;97097.19;;;18.23;42.87
47785;BME280;35233;55.686;37.848;2023-03-04T14:19:01;97092.63;;;18.59;41.89
47785;BME280;35233;55.686;37.848;2023-03-04T14:21:28;97101.84;;;18.83;41.31
47785;BME280;35233;55.686;37.848;2023-03-04T14:24:02;97098.59;;;18.97;40.92